Time;durP1;ratioP1;P1;durP2;ratioP2;P2;SDS_P1;SDS_P2;PMS_P1;PMS_P2;Temp;Humidity;BMP_temperature;BMP_pressure;BME280_temperature;BME280_humidity;BME280_pressure;Samples;Min_cycle;Max_cycle;Signal;HPM_P1;HPM_P2
2021/06/24 00:02:41;;;;;;;1999.90;999.90;;;16.30;99.90;;;;;;5044405;28;20490;-83
2021/06/24 00:05:48;;;;;;;1999.90;999.90;;;16.30;99.90;;;;;;5028476;28;20425;-83
2021/06/24 00:12:52;;;;;;;1999.90;999.90;;;16.30;99.90;;;;;;4998359;28;20411;-84
2021/06/24 00:16:00;;;;;;;1999.90;999.90;;;16.20;99.90;;;;;;4949369;28;20416;-83
2021/06/24 00:18:37;;;;;;;1999.90;999.90;;;16.20;99.90;;;;;;4983587;28;20433;-84
2021/06/24 00:21:39;;;;;;;1999.90;999.90;;;16.10;99.90;;;;;;4962244;28;20417;-83
2021/06/24 00:24:34;;;;;;;1999.90;999.90;;;16.10;99.90;;;;;;4964013;29;20418;-84
2021/06/24 00:27:32;;;;;;;1999.90;999.90;;;16.10;99.90;;;;;;5044586;28;20410;-84
2021/06/24 00:30:15;;;;;;;1999.90;999.90;;;16.00;99.90;;;;;;5062663;28;20489;-84
2021/06/24 00:37:02;;;;;;;1999.90;999.90;;;15.90;99.90;;;;;;5023822;28;20460;-83
2021/06/24 00:42:28;;;;;;;;;;;;;;;;;;;;;
2021/06/24 00:45:20;;;;;;;1999.90;999.90;;;16.00;99.90;;;;;;5062747;28;20473;-84
2021/06/24 00:48:11;;;;;;;1999.90;999.90;;;15.90;99.90;;;;;;5064210;28;20404;-84
2021/06/24 00:50:47;;;;;;;1999.90;999.90;;;16.00;99.90;;;;;;5064349;28;20790;-84
2021/06/24 00:56:34;;;;;;;1999.90;999.90;;;15.90;99.90;;;;;;5053534;28;20647;-83
2021/06/24 00:59:45;;;;;;;1999.90;999.90;;;15.90;99.90;;;;;;5047029;28;20446;-85
2021/06/24 01:02:23;;;;;;;1999.90;999.90;;;15.80;99.90;;;;;;5046232;28;20434;-83
2021/06/24 01:06:10;;;;;;;1999.90;999.90;;;15.90;99.90;;;;;;5065231;28;20375;-84
2021/06/24 01:15:13;;;;;;;1999.90;999.90;;;15.80;99.90;;;;;;5069271;28;20389;-83
2021/06/24 01:24:24;;;;;;;1999.90;999.90;;;15.80;99.90;;;;;;5069008;28;20520;-84
2021/06/24 01:41:02;;;;;;;1999.90;999.90;;;16.00;99.90;;;;;;4948528;29;20420;-84
2021/06/24 01:43:56;;;;;;;1999.90;999.90;;;16.00;99.90;;;;;;4948530;29;20466;-85
2021/06/24 01:46:43;;;;;;;1999.90;999.90;;;15.90;99.90;;;;;;4965001;29;20477;-82
2021/06/24 01:49:59;;;;;;;;;;;;;;;;;;;;;
2021/06/24 01:56:15;;;;;;;1999.90;999.90;;;15.90;99.90;;;;;;4868036;29;20462;-84
2021/06/24 02:06:06;;;;;;;1999.90;999.90;;;16.00;99.90;;;;;;4814096;29;20434;-83
2021/06/24 02:23:02;;;;;;;1999.90;999.90;;;16.20;99.90;;;;;;5044937;28;20461;-83
2021/06/24 02:32:48;;;;;;;1999.90;999.90;;;16.20;99.90;;;;;;5046041;28;20471;-83
2021/06/24 02:44:59;;;;;;;1999.90;999.90;;;16.10;99.90;;;;;;5044978;28;20416;-84
2021/06/24 02:47:58;;;;;;;1999.90;999.90;;;16.10;99.90;;;;;;5045540;28;20433;-83
2021/06/24 02:58:18;;;;;;;1999.90;999.90;;;16.10;99.90;;;;;;4909153;29;20421;-83
2021/06/24 03:01:15;;;;;;;;;;;;;;;;;;;;;
2021/06/24 03:04:35;;;;;;;;;;;;;;;;;;;;;
2021/06/24 03:07:51;;;;;;;;;;;;;;;;;;;;;
2021/06/24 03:14:14;;;;;;;1999.90;999.90;;;16.30;99.90;;;;;;5051399;22;20489;-88
2021/06/24 03:16:40;;;;;;;1999.90;999.90;;;16.30;99.90;;;;;;5056793;28;20504;-88
2021/06/24 03:19:06;;;;;;;1999.90;999.90;;;16.30;99.90;;;;;;5056380;28;20429;-88
2021/06/24 03:21:32;;;;;;;1999.90;999.90;;;16.30;99.90;;;;;;5073397;28;20421;-88
2021/06/24 03:23:58;;;;;;;1999.90;999.90;;;16.30;99.90;;;;;;5056736;28;20414;-88
2021/06/24 03:26:24;;;;;;;1999.90;999.90;;;16.20;99.90;;;;;;5072954;28;20456;-88
2021/06/24 03:28:50;;;;;;;1999.90;999.90;;;16.20;99.90;;;;;;5074564;28;20800;-88
2021/06/24 03:31:18;;;;;;;1999.90;999.90;;;16.20;99.90;;;;;;5074041;28;20610;-88
2021/06/24 03:33:44;;;;;;;1999.90;999.90;;;16.30;99.90;;;;;;5074054;28;20236;-88
2021/06/24 03:36:10;;;;;;;1999.90;999.90;;;16.30;99.90;;;;;;5073145;28;20936;-88
2021/06/24 03:38:36;;;;;;;1999.90;999.90;;;16.30;99.90;;;;;;5072762;28;20258;-88
2021/06/24 03:41:02;;;;;;;1999.90;999.90;;;16.30;99.90;;;;;;5073956;28;20767;-88
2021/06/24 03:43:28;;;;;;;1999.90;999.90;;;16.30;99.90;;;;;;5074094;28;20406;-88
2021/06/24 03:45:53;;;;;;;1999.90;999.90;;;16.30;99.90;;;;;;5073941;28;20448;-88
2021/06/24 03:48:19;;;;;;;1999.90;999.90;;;16.30;99.90;;;;;;5073800;28;20439;-88
2021/06/24 03:50:46;;;;;;;1999.90;999.90;;;16.30;99.90;;;;;;5073907;28;20164;-88
2021/06/24 03:53:12;;;;;;;1999.90;999.90;;;16.40;99.90;;;;;;5055984;28;20416;-88
2021/06/24 03:55:43;;;;;;;1999.90;999.90;;;16.50;99.90;;;;;;5073793;28;20409;-88
2021/06/24 03:58:12;;;;;;;1999.90;999.90;;;16.50;99.90;;;;;;5074682;28;20739;-88
2021/06/24 04:00:41;;;;;;;1999.90;999.90;;;16.50;99.90;;;;;;5073589;28;20775;-88
2021/06/24 04:03:07;;;;;;;1999.90;999.90;;;16.40;99.90;;;;;;5055603;28;20901;-88
2021/06/24 04:05:33;;;;;;;1999.90;999.90;;;16.30;99.90;;;;;;5073529;28;20477;-88
2021/06/24 04:08:00;;;;;;;1999.90;999.90;;;16.30;99.90;;;;;;5073472;28;20405;-88
2021/06/24 04:10:31;;;;;;;1999.90;999.90;;;16.30;99.90;;;;;;5073344;28;20453;-88
2021/06/24 04:12:58;;;;;;;1999.90;999.90;;;16.30;99.90;;;;;;5073439;28;20819;-88
2021/06/24 04:15:26;;;;;;;1999.90;999.90;;;16.30;99.90;;;;;;5055421;28;20799;-88
2021/06/24 04:17:52;;;;;;;1999.90;999.90;;;16.30;99.90;;;;;;5055680;28;20418;-88
2021/06/24 04:20:19;;;;;;;1999.90;999.90;;;16.40;99.90;;;;;;5073686;28;20418;-88
2021/06/24 04:22:45;;;;;;;1999.90;999.90;;;16.40;99.90;;;;;;5073328;28;20402;-88
2021/06/24 04:25:13;;;;;;;1999.90;999.90;;;16.40;99.90;;;;;;5055596;28;20417;-88
2021/06/24 04:27:39;;;;;;;1999.90;999.90;;;16.40;99.90;;;;;;5073308;28;20820;-88
2021/06/24 04:30:07;;;;;;;1999.90;999.90;;;16.40;99.90;;;;;;5073357;28;20988;-88
2021/06/24 04:32:36;;;;;;;1999.90;999.90;;;16.50;99.90;;;;;;5072820;28;20428;-89
2021/06/24 04:35:04;;;;;;;1999.90;999.90;;;16.50;99.90;;;;;;5073102;28;20445;-88
2021/06/24 04:37:30;;;;;;;1999.90;999.90;;;16.40;99.90;;;;;;5055083;28;20420;-88
2021/06/24 04:39:56;;;;;;;1999.90;999.90;;;16.40;99.90;;;;;;5073075;28;20426;-88
2021/06/24 04:42:22;;;;;;;1999.90;999.90;;;16.50;99.90;;;;;;5073285;28;20247;-88
2021/06/24 04:44:48;;;;;;;1999.90;999.90;;;16.50;99.90;;;;;;5071282;28;20176;-88
2021/06/24 04:47:15;;;;;;;1999.90;999.90;;;16.60;99.90;;;;;;5072962;28;20413;-88
2021/06/24 04:49:41;;;;;;;1999.90;999.90;;;16.60;99.90;;;;;;5073141;28;20222;-89
2021/06/24 04:52:07;;;;;;;1999.90;999.90;;;16.60;99.90;;;;;;5073070;28;20401;-88
2021/06/24 04:54:33;;;;;;;1999.90;999.90;;;16.60;99.90;;;;;;5073363;28;20811;-88
2021/06/24 04:56:59;;;;;;;1999.90;999.90;;;16.60;99.90;;;;;;5054933;28;20943;-88
2021/06/24 04:59:25;;;;;;;1999.90;999.90;;;16.70;99.90;;;;;;5072932;28;20436;-88
2021/06/24 05:01:50;;;;;;;1999.90;999.90;;;16.70;99.90;;;;;;5055010;28;20245;-88
2021/06/24 05:04:17;;;;;;;1999.90;999.90;;;16.70;99.90;;;;;;5071803;28;20406;-88
2021/06/24 05:06:43;;;;;;;1999.90;999.90;;;16.70;99.90;;;;;;5055439;28;20180;-88
2021/06/24 05:09:09;;;;;;;1999.90;999.90;;;16.80;99.90;;;;;;5054654;28;20530;-88
2021/06/24 05:11:35;;;;;;;1999.90;999.90;;;16.80;99.90;;;;;;5072824;28;20403;-88
2021/06/24 05:14:00;;;;;;;1999.90;999.90;;;16.80;99.90;;;;;;5072729;28;20179;-88
2021/06/24 05:16:29;;;;;;;1999.90;999.90;;;16.90;99.90;;;;;;5073108;28;20213;-88
2021/06/24 05:18:55;;;;;;;1999.90;999.90;;;17.00;99.90;;;;;;5071368;28;20200;-88
2021/06/24 05:21:20;;;;;;;1999.90;999.90;;;17.00;99.90;;;;;;5054698;28;20432;-88
2021/06/24 05:23:46;;;;;;;1999.90;999.90;;;17.10;99.90;;;;;;5072258;28;20414;-88
2021/06/24 05:26:12;;;;;;;1999.90;999.90;;;17.10;99.90;;;;;;5071360;28;20168;-88
2021/06/24 05:28:37;;;;;;;1999.90;999.90;;;17.20;99.90;;;;;;5072509;28;20281;-88
2021/06/24 05:31:03;;;;;;;1999.90;999.90;;;17.30;99.90;;;;;;5071533;28;20226;-88
2021/06/24 05:33:29;;;;;;;1999.90;999.90;;;17.40;99.90;;;;;;5072677;28;20250;-88
2021/06/24 05:35:58;;;;;;;1999.90;999.90;;;17.40;99.90;;;;;;5072641;28;20172;-88
2021/06/24 05:38:23;;;;;;;1999.90;999.90;;;17.50;99.90;;;;;;5054717;28;20440;-88
2021/06/24 05:40:57;;;;;;;1999.90;999.90;;;17.50;99.90;;;;;;5072808;28;20434;-88
2021/06/24 05:43:23;;;;;;;1999.90;999.90;;;17.40;99.90;;;;;;5072762;28;20145;-88
2021/06/24 05:45:48;;;;;;;1999.90;999.90;;;17.40;99.90;;;;;;5072547;28;20452;-88
2021/06/24 05:48:14;;;;;;;1999.90;999.90;;;17.30;99.90;;;;;;5054389;28;20175;-88
2021/06/24 05:50:40;;;;;;;1999.90;999.90;;;17.40;99.90;;;;;;5071247;28;20198;-85
2021/06/24 05:53:07;;;;;;;1999.90;999.90;;;17.40;99.90;;;;;;5072455;28;20214;-86
2021/06/24 05:55:48;;;;;;;1999.90;999.90;;;17.30;99.90;;;;;;5074453;28;20853;-86
2021/06/24 05:58:25;;;;;;;1999.90;999.90;;;17.40;99.90;;;;;;5058141;28;20402;-86
2021/06/24 06:00:54;;;;;;;1999.90;999.90;;;17.40;99.90;;;;;;5076302;28;20429;-86
2021/06/24 06:03:21;;;;;;;1999.90;999.90;;;17.30;99.90;;;;;;5058818;28;20408;-86
2021/06/24 06:05:47;;;;;;;1999.90;999.90;;;17.30;99.90;;;;;;5057989;28;20414;-86
2021/06/24 06:08:14;;;;;;;1999.90;999.90;;;17.30;99.90;;;;;;5075834;28;20410;-86
2021/06/24 06:10:40;;;;;;;1999.90;999.90;;;17.30;99.90;;;;;;5074459;28;20823;-86
2021/06/24 06:13:07;;;;;;;1999.90;999.90;;;17.30;99.90;;;;;;5075816;28;20414;-87
2021/06/24 06:15:36;;;;;;;1999.90;999.90;;;17.20;99.90;;;;;;5075636;28;20426;-87
2021/06/24 06:18:08;;;;;;;1999.90;999.90;;;17.30;99.90;;;;;;5057639;28;20411;-87
2021/06/24 06:20:34;;;;;;;1999.90;999.90;;;17.40;99.90;;;;;;5075661;28;20422;-87
2021/06/24 06:23:00;;;;;;;1999.90;999.90;;;17.30;99.90;;;;;;5076271;28;20390;-87
2021/06/24 06:25:28;;;;;;;1999.90;999.90;;;17.30;99.90;;;;;;5075549;28;20170;-87
2021/06/24 06:27:54;;;;;;;1999.90;999.90;;;17.30;99.90;;;;;;5075401;28;20650;-87
2021/06/24 06:30:20;;;;;;;1999.90;999.90;;;17.30;99.90;;;;;;5057277;28;20462;-87
2021/06/24 06:32:55;;;;;;;1999.90;999.90;;;17.30;99.90;;;;;;5075656;28;20164;-87
2021/06/24 06:35:21;;;;;;;1999.90;999.90;;;17.30;99.90;;;;;;5076159;28;20798;-87
2021/06/24 06:37:47;;;;;;;1999.90;999.90;;;17.10;99.90;;;;;;5073942;28;20435;-87
2021/06/24 06:40:13;;;;;;;1999.90;999.90;;;17.20;99.90;;;;;;5073955;28;20438;-91
2021/06/24 06:42:40;;;;;;;1999.90;999.90;;;17.20;99.90;;;;;;5075202;28;20164;-90
2021/06/24 06:45:10;;;;;;;1999.90;999.90;;;17.20;99.90;;;;;;5057282;28;20406;-90
2021/06/24 06:47:41;;;;;;;1999.90;999.90;;;17.20;99.90;;;;;;5075046;28;20433;-90
2021/06/24 06:50:07;;;;;;;1999.90;999.90;;;17.30;99.90;;;;;;5073618;28;20458;-90
2021/06/24 06:52:35;;;;;;;1999.90;999.90;;;17.30;99.90;;;;;;5074991;28;20878;-89
2021/06/24 06:55:01;;;;;;;1999.90;999.90;;;17.30;99.90;;;;;;5075195;28;20493;-90
2021/06/24 06:57:36;;;;;;;1999.90;999.90;;;17.40;99.90;;;;;;5057292;28;20877;-90
2021/06/24 07:00:08;;;;;;;1999.90;999.90;;;17.40;99.90;;;;;;5074884;28;20187;-90
2021/06/24 07:02:34;;;;;;;1999.90;999.90;;;17.40;99.90;;;;;;5057024;28;20434;-89
2021/06/24 07:05:00;;;;;;;1999.90;999.90;;;17.40;99.90;;;;;;5074741;28;20418;-89
2021/06/24 07:07:25;;;;;;;1999.90;999.90;;;17.50;99.90;;;;;;5074244;28;20740;-89
2021/06/24 07:09:53;;;;;;;1999.90;999.90;;;17.50;99.90;;;;;;5074693;28;20199;-89
2021/06/24 07:12:19;;;;;;;1999.90;999.90;;;17.60;99.90;;;;;;5073673;28;20187;-90
2021/06/24 07:14:48;;;;;;;1999.90;999.90;;;17.60;99.90;;;;;;5073350;28;20441;-90
2021/06/24 07:17:14;;;;;;;1999.90;999.90;;;17.70;99.90;;;;;;5074730;28;20409;-89
2021/06/24 07:19:39;;;;;;;1999.90;999.90;;;17.70;99.90;;;;;;5056615;28;20439;-89
2021/06/24 07:22:06;;;;;;;1999.90;999.90;;;17.80;99.90;;;;;;5074905;28;20168;-89
2021/06/24 07:24:31;;;;;;;1999.90;999.90;;;17.90;99.90;;;;;;5074619;28;20160;-89
2021/06/24 07:27:04;;;;;;;1999.90;999.90;;;18.00;99.90;;;;;;5056632;28;20483;-90
2021/06/24 07:29:29;;;;;;;1999.90;999.90;;;18.10;99.90;;;;;;5073688;28;20208;-89
2021/06/24 07:31:55;;;;;;;1999.90;999.90;;;18.10;99.90;;;;;;5075323;28;20447;-90
2021/06/24 07:34:21;;;;;;;1999.90;999.90;;;18.10;99.90;;;;;;5074387;28;20172;-89
2021/06/24 07:36:48;;;;;;;1999.90;999.90;;;18.20;99.90;;;;;;5056775;28;20167;-89
2021/06/24 07:39:14;;;;;;;1999.90;999.90;;;18.30;99.90;;;;;;5074339;28;20188;-89
2021/06/24 07:41:39;;;;;;;1999.90;999.90;;;18.30;99.90;;;;;;5073881;28;20468;-89
2021/06/24 07:44:05;;;;;;;1999.90;999.90;;;18.30;99.90;;;;;;5074623;28;20178;-89
2021/06/24 07:46:31;;;;;;;1999.90;999.90;;;18.20;99.90;;;;;;5073190;28;20202;-89
2021/06/24 07:48:57;;;;;;;1999.90;999.90;;;18.20;99.90;;;;;;5074130;28;20272;-89
2021/06/24 07:51:23;;;;;;;1999.90;999.90;;;18.20;99.90;;;;;;5073161;28;20398;-89
2021/06/24 07:53:49;;;;;;;1999.90;999.90;;;18.20;99.90;;;;;;5074328;28;20886;-89
2021/06/24 07:56:15;;;;;;;1999.90;999.90;;;18.20;99.90;;;;;;5072965;28;20198;-89
2021/06/24 07:58:41;;;;;;;1999.90;999.90;;;18.20;99.90;;;;;;5056189;28;20437;-89
2021/06/24 08:01:08;;;;;;;1999.90;999.90;;;18.20;99.90;;;;;;5072965;28;20410;-89
2021/06/24 08:03:35;;;;;;;1999.90;999.90;;;18.20;99.90;;;;;;5055964;28;20429;-89
2021/06/24 08:06:02;;;;;;;1999.90;999.90;;;18.30;99.90;;;;;;5073569;28;20466;-89
2021/06/24 08:08:28;;;;;;;1999.90;999.90;;;18.40;99.90;;;;;;5055773;28;20421;-87
2021/06/24 08:10:55;;;;;;;1999.90;999.90;;;18.40;99.90;;;;;;5073542;28;20395;-86
2021/06/24 08:13:28;;;;;;;1999.90;999.90;;;18.30;99.90;;;;;;5073374;28;20444;-86
2021/06/24 08:15:57;;;;;;;1999.90;999.90;;;18.30;99.90;;;;;;5074252;28;20383;-89
2021/06/24 08:18:23;;;;;;;1999.90;999.90;;;18.30;99.90;;;;;;5055864;28;20412;-89
2021/06/24 08:20:50;;;;;;;1999.90;999.90;;;18.40;99.90;;;;;;5073713;28;20472;-89
2021/06/24 08:23:17;;;;;;;1999.90;999.90;;;18.40;99.90;;;;;;5073465;28;20394;-89
2021/06/24 08:25:43;;;;;;;1999.90;999.90;;;18.50;99.90;;;;;;5072640;28;20402;-89
2021/06/24 08:28:11;;;;;;;1999.90;999.90;;;18.50;99.90;;;;;;5055372;28;20407;-89
2021/06/24 08:30:43;;;;;;;1999.90;999.90;;;18.50;99.90;;;;;;5073211;28;20418;-89
2021/06/24 08:33:13;;;;;;;1999.90;999.90;;;18.60;99.90;;;;;;5073483;28;20374;-89
2021/06/24 08:35:39;;;;;;;1999.90;999.90;;;18.60;99.90;;;;;;5055294;28;20398;-89
2021/06/24 08:38:10;;;;;;;1999.90;999.90;;;18.60;99.90;;;;;;5073532;28;20838;-89
2021/06/24 08:40:38;;;;;;;1999.90;999.90;;;18.60;99.90;;;;;;5055556;28;20797;-89
2021/06/24 08:43:08;;;;;;;1999.90;999.90;;;18.70;99.90;;;;;;5071924;28;20516;-89
2021/06/24 08:45:34;;;;;;;1999.90;999.90;;;18.70;99.90;;;;;;5073531;28;20425;-89
2021/06/24 08:48:01;;;;;;;1999.90;999.90;;;18.80;99.90;;;;;;5073558;28;20406;-89
2021/06/24 08:50:30;;;;;;;1999.90;999.90;;;18.80;99.90;;;;;;5072355;28;20204;-89
2021/06/24 08:52:56;;;;;;;1999.90;999.90;;;18.90;99.90;;;;;;5055744;28;20398;-89
2021/06/24 08:55:22;;;;;;;1999.90;999.90;;;18.90;99.90;;;;;;5074069;28;20409;-90
2021/06/24 08:57:48;;;;;;;1999.90;999.90;;;19.00;99.90;;;;;;5072424;28;20164;-89
2021/06/24 09:00:30;;;;;;;1999.90;999.90;;;19.00;99.90;;;;;;5073052;28;20433;-89
2021/06/24 09:02:58;;;;;;;1999.90;999.90;;;19.00;99.90;;;;;;5055420;28;20770;-89
2021/06/24 09:06:06;;;;;;;1999.90;999.90;;;19.10;99.90;;;;;;5073433;28;20852;-88
2021/06/24 09:08:46;;;;;;;1999.90;999.90;;;19.20;99.90;;;;;;5073191;28;20441;-88
2021/06/24 09:11:19;;;;;;;1999.90;999.90;;;19.20;99.90;;;;;;5073556;28;20386;-89
2021/06/24 09:14:06;;;;;;;1999.90;999.90;;;19.20;99.90;;;;;;5055026;28;20497;-88
2021/06/24 09:16:37;;;;;;;1999.90;999.90;;;19.20;99.90;;;;;;5073532;28;20389;-88
2021/06/24 09:19:23;;;;;;;1999.90;999.90;;;19.20;99.90;;;;;;5055167;28;20465;-89
2021/06/24 09:22:04;;;;;;;1999.90;999.90;;;19.20;99.90;;;;;;5073438;28;20902;-88
2021/06/24 09:24:39;;;;;;;1999.90;999.90;;;19.30;99.90;;;;;;5073187;28;20408;-88
2021/06/24 09:27:29;;;;;;;1999.90;999.90;;;19.40;99.90;;;;;;5055416;28;20921;-89
2021/06/24 09:30:15;;;;;;;1999.90;999.90;;;19.60;99.90;;;;;;5056288;28;20468;-89
2021/06/24 09:32:46;;;;;;;1999.90;999.90;;;19.70;99.90;;;;;;5060241;28;20434;-88
2021/06/24 09:35:24;;;;;;;1999.90;999.90;;;20.00;99.90;;;;;;5058726;28;20467;-89
2021/06/24 09:38:03;;;;;;;1999.90;999.90;;;20.20;99.90;;;;;;5059336;28;20410;-89
2021/06/24 09:40:57;;;;;;;1999.90;999.90;;;20.40;99.90;;;;;;5076568;28;20991;-89
2021/06/24 09:43:32;;;;;;;1999.90;999.90;;;20.60;99.90;;;;;;5075636;28;20419;-89
2021/06/24 09:46:06;;;;;;;1999.90;999.90;;;20.80;99.90;;;;;;5077041;28;20380;-89
2021/06/24 09:48:35;;;;;;;1999.90;999.90;;;20.90;99.90;;;;;;5076409;28;20411;-88
2021/06/24 09:51:13;;;;;;;1999.90;999.90;;;21.00;99.90;;;;;;5076447;28;20472;-89
2021/06/24 09:53:59;;;;;;;1999.90;999.90;;;21.00;99.90;;;;;;5076057;28;20795;-88
2021/06/24 09:56:31;;;;;;;1999.90;999.90;;;21.00;99.90;;;;;;5076274;28;20398;-88
2021/06/24 09:58:58;;;;;;;1999.90;999.90;;;20.90;99.90;;;;;;5076443;28;20426;-88
2021/06/24 10:01:42;;;;;;;1999.90;999.90;;;20.90;99.90;;;;;;5058202;28;20445;-88
2021/06/24 10:04:31;;;;;;;1999.90;999.90;;;20.90;99.90;;;;;;5058888;28;20918;-89
2021/06/24 10:07:00;;;;;;;1999.90;999.90;;;21.00;99.90;;;;;;5076353;28;20436;-89
2021/06/24 10:09:28;;;;;;;1999.90;999.90;;;21.00;99.90;;;;;;5057887;28;20456;-88
2021/06/24 10:11:55;;;;;;;1999.90;999.90;;;21.10;99.90;;;;;;5058011;28;20446;-89
2021/06/24 10:14:21;;;;;;;1999.90;999.90;;;21.20;99.90;;;;;;5075768;28;20428;-89
2021/06/24 10:16:53;;;;;;;1999.90;999.90;;;21.40;99.90;;;;;;5075762;28;20421;-88
2021/06/24 10:19:40;;;;;;;1999.90;999.90;;;21.50;99.90;;;;;;5075752;28;20949;-88
2021/06/24 10:22:19;;;;;;;1999.90;999.90;;;21.60;99.90;;;;;;5057824;28;20401;-88
2021/06/24 10:24:55;;;;;;;1999.90;999.90;;;21.70;99.90;;;;;;5076031;28;20427;-88
2021/06/24 10:27:23;;;;;;;1999.90;999.90;;;21.80;99.90;;;;;;5075669;28;20455;-89
2021/06/24 10:29:52;;;;;;;1999.90;999.90;;;21.90;99.90;;;;;;5074432;28;20450;-88
2021/06/24 10:32:44;;;;;;;1999.90;999.90;;;21.80;99.90;;;;;;5057595;28;20403;-89
2021/06/24 10:35:29;;;;;;;1999.90;999.90;;;21.70;99.90;;;;;;5058630;28;20403;-89
2021/06/24 10:37:55;;;;;;;1999.90;999.90;;;21.60;99.90;;;;;;5058072;28;20507;-88
2021/06/24 10:40:39;;;;;;;1999.90;999.90;;;21.70;99.90;;;;;;5075856;28;20421;-88
2021/06/24 10:43:12;;;;;;;1999.90;999.90;;;21.70;99.90;;;;;;5073514;28;20433;-89
2021/06/24 10:45:40;;;;;;;1999.90;999.90;;;21.70;99.90;;;;;;5057609;28;20405;-88
2021/06/24 10:48:31;;;;;;;1999.90;999.90;;;21.60;99.90;;;;;;5057371;28;20409;-90
2021/06/24 10:51:09;;;;;;;1999.90;999.90;;;21.50;99.90;;;;;;5075300;28;20410;-89
2021/06/24 10:53:49;;;;;;;1999.90;999.90;;;21.50;99.90;;;;;;5075416;28;20382;-89
2021/06/24 10:56:53;;;;;;;1999.90;999.90;;;21.70;99.90;;;;;;5057325;28;20505;-90
2021/06/24 10:59:34;;;;;;;1999.90;999.90;;;21.80;99.90;;;;;;5065969;28;20437;-90
2021/06/24 11:02:14;;;;;;;1999.90;999.90;;;22.00;99.90;;;;;;5075821;28;20424;-90
2021/06/24 11:04:46;;;;;;;1999.90;999.90;;;21.90;99.90;;;;;;5145870;22;20460;-82
2021/06/24 11:07:24;;;;;;;1999.90;999.90;;;21.90;99.90;;;;;;5064470;28;20414;-82
2021/06/24 11:13:45;;;;;;;1999.90;999.90;;;22.10;99.90;;;;;;5023863;28;20776;-82
2021/06/24 11:16:20;;;;;;;1999.90;999.90;;;22.30;99.90;;;;;;5006582;28;20948;-81
2021/06/24 11:24:34;;;;;;;1999.90;999.90;;;22.40;99.90;;;;;;5062916;28;20395;-83
2021/06/24 11:27:26;;;;;;;1999.90;999.90;;;22.50;99.90;;;;;;5067447;28;20773;-80
2021/06/24 11:30:00;;;;;;;1999.90;999.90;;;22.60;99.90;;;;;;5045749;28;20493;-83
2021/06/24 11:32:56;;;;;;;1999.90;999.90;;;22.60;99.90;;;;;;5067215;28;20406;-83
2021/06/24 11:35:57;;;;;;;1999.90;999.90;;;22.50;99.90;;;;;;5067432;28;20449;-84
2021/06/24 11:43:50;;;;;;;1999.90;999.90;;;22.70;99.90;;;;;;4863929;26;20470;-81
2021/06/24 11:46:24;;;;;;;1999.90;999.90;;;22.90;99.90;;;;;;5046119;28;20418;-81
2021/06/24 12:03:06;;;;;;;1999.90;999.90;;;23.70;99.90;;;;;;5063243;28;20392;-82
2021/06/24 12:05:39;;;;;;;1999.90;999.90;;;23.50;99.90;;;;;;5046326;28;20415;-81
2021/06/24 12:08:05;;;;;;;1999.90;999.90;;;23.30;99.90;;;;;;5045826;28;20430;-81
2021/06/24 12:10:31;;;;;;;1999.90;999.90;;;23.20;99.90;;;;;;5043662;28;20450;-81
2021/06/24 12:12:56;;;;;;;1999.90;999.90;;;23.10;99.90;;;;;;5063636;28;20218;-81
2021/06/24 12:15:22;;;;;;;1999.90;999.90;;;23.00;99.90;;;;;;5045017;28;20207;-81
2021/06/24 12:17:50;;;;;;;1999.90;999.90;;;23.00;99.90;;;;;;5063429;28;20173;-81
2021/06/24 12:20:23;;;;;;;1999.90;999.90;;;23.00;99.90;;;;;;5064613;28;20188;-81
2021/06/24 12:23:04;;;;;;;1999.90;999.90;;;23.00;99.90;;;;;;5045306;28;20411;-82
2021/06/24 12:25:43;;;;;;;1999.90;999.90;;;22.90;99.90;;;;;;5044732;28;20406;-80
2021/06/24 12:28:21;;;;;;;1999.90;999.90;;;22.90;99.90;;;;;;5063895;28;20400;-81
2021/06/24 12:31:06;;;;;;;1999.90;999.90;;;22.90;99.90;;;;;;5043072;28;20419;-81
2021/06/24 12:33:51;;;;;;;1999.90;999.90;;;22.90;99.90;;;;;;5062355;28;20405;-81
2021/06/24 12:36:34;;;;;;;1999.90;999.90;;;22.80;99.90;;;;;;5064076;28;20380;-81
2021/06/24 12:39:06;;;;;;;1999.90;999.90;;;22.60;99.90;;;;;;5044590;28;20439;-81
2021/06/24 12:41:48;;;;;;;1999.90;999.90;;;22.60;99.90;;;;;;5062671;28;20524;-81
2021/06/24 12:44:17;;;;;;;1999.90;999.90;;;22.50;99.90;;;;;;5046186;28;20475;-81
2021/06/24 12:46:48;;;;;;;1999.90;999.90;;;22.40;99.90;;;;;;5047227;28;20806;-81
2021/06/24 12:49:35;;;;;;;1999.90;999.90;;;22.30;99.90;;;;;;5064478;28;20814;-81
2021/06/24 12:52:09;;;;;;;1999.90;999.90;;;22.20;99.90;;;;;;5062120;28;20415;-81
2021/06/24 12:55:21;;;;;;;1999.90;999.90;;;22.20;99.90;;;;;;5046393;28;20414;-81
2021/06/24 12:58:02;;;;;;;1999.90;999.90;;;22.10;99.90;;;;;;4966959;28;20522;-82
2021/06/24 13:01:14;;;;;;;1999.90;999.90;;;22.10;99.90;;;;;;4982786;28;20444;-81
2021/06/24 13:07:34;;;;;;;;;;;;;;;;;;;;;
2021/06/24 13:10:15;;;;;;;1999.90;999.90;;;22.10;99.90;;;;;;5066367;28;20542;-82
2021/06/24 13:13:23;;;;;;;1999.90;999.90;;;22.10;99.90;;;;;;5046032;28;20752;-82
2021/06/24 13:20:28;;;;;;;1999.90;999.90;;;22.00;99.90;;;;;;5004336;28;20512;-81
2021/06/24 13:23:54;;;;;;;1999.90;999.90;;;22.10;99.90;;;;;;5002028;28;20488;-82
2021/06/24 13:30:26;;;;;;;1999.90;999.90;;;22.30;99.90;;;;;;4948203;29;20555;-81
2021/06/24 13:33:56;;;;;;;;;;;;;;;;;;;;;
2021/06/24 13:36:29;;;;;;;1999.90;999.90;;;22.40;99.90;;;;;;4890038;29;20518;-82
2021/06/24 13:39:13;;;;;;;1999.90;999.90;;;22.60;99.90;;;;;;4944496;29;20797;-82
2021/06/24 13:41:44;;;;;;;1999.90;999.90;;;22.80;99.90;;;;;;4982878;28;20882;-81
2021/06/24 13:44:39;;;;;;;1999.90;999.90;;;22.90;99.90;;;;;;4966408;28;20465;-81
2021/06/24 13:48:19;;;;;;;1999.90;999.90;;;23.00;99.90;;;;;;5046732;28;20403;-81
2021/06/24 13:51:27;;;;;;;1999.90;999.90;;;23.30;99.90;;;;;;4976347;28;20465;-82
2021/06/24 13:54:07;;;;;;;1999.90;999.90;;;23.40;99.90;;;;;;5036985;28;20565;-82
2021/06/24 13:57:11;;;;;;;;;;;;;;;;;;;;;
2021/06/24 14:02:25;;;;;;;1999.90;999.90;;;23.80;99.90;;;;;;5107223;22;20481;-81
2021/06/24 14:05:21;;;;;;;1999.90;999.90;;;24.00;99.90;;;;;;5082438;28;20402;-82
2021/06/24 14:14:53;;;;;;;1999.90;999.90;;;23.70;99.90;;;;;;5028859;28;20425;-81
2021/06/24 14:17:50;;;;;;;;;;;;;;;;;;;;;
2021/06/24 14:21:08;;;;;;;;;;;;;;;;;;;;;
2021/06/24 14:23:54;;;;;;;1999.90;999.90;;;23.90;99.90;;;;;;5082244;28;20465;-82
2021/06/24 14:26:22;;;;;;;1999.90;999.90;;;24.00;99.90;;;;;;5063067;28;20394;-82
2021/06/24 14:28:53;;;;;;;1999.90;999.90;;;23.90;99.90;;;;;;5080507;28;20453;-82
2021/06/24 14:31:23;;;;;;;1999.90;999.90;;;23.80;99.90;;;;;;5081008;28;20884;-82
2021/06/24 14:34:01;;;;;;;1999.90;999.90;;;23.80;99.90;;;;;;5081389;28;20401;-81
2021/06/24 14:36:44;;;;;;;1999.90;999.90;;;23.80;99.90;;;;;;5081126;28;20378;-81
2021/06/24 14:40:36;;;;;;;1999.90;999.90;;;23.60;99.90;;;;;;5062416;28;20445;-82
2021/06/24 14:42:39;;;;;;;1999.90;999.90;;;23.40;99.90;;;;;;5066475;28;20992;-82
2021/06/24 14:46:04;;;;;;;1999.90;999.90;;;23.50;99.90;;;;;;5080916;28;20426;-82
2021/06/24 14:50:57;;;;;;;1999.90;999.90;;;23.50;99.90;;;;;;5266746;22;20517;-81
2021/06/24 14:53:25;;;;;;;1999.90;999.90;;;23.40;99.90;;;;;;5080604;28;20409;-81
2021/06/24 14:56:04;;;;;;;1999.90;999.90;;;23.50;99.90;;;;;;5061829;28;20497;-82
2021/06/24 15:03:13;;;;;;;1999.90;999.90;;;23.40;99.90;;;;;;5019220;28;20431;-81
2021/06/24 15:05:46;;;;;;;1999.90;999.90;;;23.50;99.90;;;;;;4971839;28;20444;-82
2021/06/24 15:09:15;;;;;;;1999.90;999.90;;;23.50;99.90;;;;;;5061742;28;20478;-81
2021/06/24 15:11:45;;;;;;;1999.90;999.90;;;23.70;99.90;;;;;;5036138;28;20428;-82
2021/06/24 15:14:23;;;;;;;1999.90;999.90;;;23.80;99.90;;;;;;5080688;28;20477;-82
2021/06/24 15:17:01;;;;;;;1999.90;999.90;;;23.90;99.90;;;;;;5063588;28;20402;-82
2021/06/24 15:19:32;;;;;;;1999.90;999.90;;;23.80;99.90;;;;;;5079452;28;20433;-81
2021/06/24 15:21:58;;;;;;;1999.90;999.90;;;23.60;99.90;;;;;;5079236;28;20409;-81
2021/06/24 15:24:24;;;;;;;1999.90;999.90;;;23.80;99.90;;;;;;5079400;28;20407;-81
2021/06/24 15:26:50;;;;;;;1999.90;999.90;;;23.90;99.90;;;;;;5080347;28;20168;-82